createdAt,value
2023-02-11T00:02:57.262Z,3.00
2023-02-11T00:08:01.295Z,3.00
2023-02-11T00:13:04.609Z,3.00
2023-02-11T00:18:08.250Z,2.90
2023-02-11T00:23:11.597Z,3.00
2023-02-11T00:28:15.055Z,3.00
2023-02-11T00:33:18.407Z,3.00
2023-02-11T00:38:21.685Z,3.00
2023-02-11T00:43:26.163Z,3.00
2023-02-11T00:48:29.623Z,2.90
2023-02-11T00:53:33.505Z,3.00
2023-02-11T00:58:37.612Z,2.90
2023-02-11T01:03:41.228Z,3.00
2023-02-11T01:08:44.929Z,3.00
2023-02-11T01:13:49.934Z,3.00
2023-02-11T01:18:53.373Z,3.00
2023-02-11T01:23:56.834Z,3.10
2023-02-11T01:29:01.552Z,3.00
2023-02-11T01:34:04.693Z,3.00
2023-02-11T01:39:09.212Z,3.10
2023-02-11T01:44:37.471Z,3.10
2023-02-11T01:49:44.432Z,3.10
2023-02-11T01:55:10.730Z,3.10
2023-02-11T02:00:22.469Z,3.10
2023-02-11T02:05:49.821Z,3.10
2023-02-11T02:10:56.808Z,3.00
2023-02-11T02:16:09.505Z,3.00
2023-02-11T02:21:59.987Z,3.10
2023-02-11T02:27:30.285Z,3.10
2023-02-11T02:33:16.767Z,3.10
2023-02-11T02:38:45.485Z,3.10
2023-02-11T02:43:52.240Z,3.10
2023-02-11T02:48:57.132Z,3.10
2023-02-11T02:54:37.546Z,3.00
2023-02-11T03:00:02.466Z,3.00
2023-02-11T03:05:39.649Z,3.00
2023-02-11T03:10:46.994Z,3.10
2023-02-11T03:15:55.121Z,3.10
2023-02-11T03:21:00.332Z,3.00
2023-02-11T03:26:06.576Z,3.00
2023-02-11T03:31:16.872Z,3.00
2023-02-11T03:36:30.707Z,3.00
2023-02-11T03:41:36.027Z,3.00
2023-02-11T03:46:43.853Z,3.00
2023-02-11T03:51:50.104Z,3.00
2023-02-11T03:56:57.227Z,3.00
2023-02-11T04:02:00.449Z,3.00
2023-02-11T04:07:03.868Z,3.00
2023-02-11T04:12:07.710Z,3.00
2023-02-11T04:17:12.234Z,3.10
2023-02-11T04:22:15.637Z,3.00
2023-02-11T04:27:19.155Z,3.00
2023-02-11T04:32:22.754Z,3.00
2023-02-11T04:37:26.042Z,2.90
2023-02-11T04:42:29.809Z,3.00
2023-02-11T04:47:33.255Z,3.00
2023-02-11T04:52:37.011Z,3.00
2023-02-11T04:57:40.290Z,3.00
2023-02-11T05:02:44.409Z,3.00
2023-02-11T05:07:48.839Z,2.90
2023-02-11T05:12:55.321Z,2.90
2023-02-11T05:17:59.389Z,2.90
2023-02-11T05:23:03.031Z,2.90
2023-02-11T05:28:07.052Z,2.90
2023-02-11T05:33:10.478Z,2.90
2023-02-11T05:38:13.911Z,2.90
2023-02-11T05:43:17.257Z,2.80
2023-02-11T05:48:20.596Z,2.80
2023-02-11T05:53:24.398Z,2.80
2023-02-11T05:58:28.142Z,2.80
2023-02-11T06:03:31.477Z,2.70
2023-02-11T06:08:36.488Z,2.60
2023-02-11T06:13:41.572Z,2.50
2023-02-11T06:18:44.767Z,2.50
2023-02-11T06:23:48.077Z,2.40
2023-02-11T06:28:51.692Z,2.50
2023-02-11T06:33:59.353Z,2.50
2023-02-11T06:39:03.454Z,2.40
2023-02-11T06:44:07.484Z,2.40
2023-02-11T06:49:10.942Z,2.30
2023-02-11T06:54:15.257Z,2.30
2023-02-11T06:59:21.095Z,2.30
2023-02-11T07:04:24.340Z,2.40
2023-02-11T07:09:27.555Z,2.40
2023-02-11T07:14:30.825Z,2.50
2023-02-11T07:19:34.564Z,2.40
2023-02-11T07:24:37.901Z,2.50
2023-02-11T07:29:43.115Z,2.50
2023-02-11T07:34:48.424Z,2.50
2023-02-11T07:39:51.683Z,2.60
2023-02-11T07:44:55.082Z,2.70
2023-02-11T07:49:58.482Z,2.70
2023-02-11T07:55:03.824Z,2.80
2023-02-11T08:00:08.952Z,2.90
2023-02-11T08:05:12.469Z,3.00
2023-02-11T08:10:15.741Z,3.00
2023-02-11T08:15:19.200Z,3.10
2023-02-11T08:20:22.553Z,3.20
2023-02-11T08:25:25.837Z,3.20
2023-02-11T08:30:30.526Z,3.30
2023-02-11T08:35:37.456Z,3.30
2023-02-11T08:40:40.696Z,3.40
2023-02-11T08:45:44.937Z,3.40
2023-02-11T08:50:48.319Z,3.50
2023-02-11T08:55:54.103Z,3.50
2023-02-11T09:00:57.504Z,3.50
2023-02-11T09:06:00.917Z,3.40
2023-02-11T09:11:04.877Z,3.40
2023-02-11T09:16:09.167Z,3.40
2023-02-11T09:21:13.325Z,3.40
2023-02-11T09:26:26.520Z,3.40
2023-02-11T09:31:32.070Z,3.40
2023-02-11T09:36:38.856Z,3.50
2023-02-11T09:42:00.950Z,3.50
2023-02-11T09:47:22.948Z,3.50
2023-02-11T09:52:31.230Z,3.50
2023-02-11T09:57:40.772Z,3.60
2023-02-11T10:03:15.741Z,3.60
2023-02-11T10:08:40.173Z,3.60
2023-02-11T10:19:39.667Z,3.60
2023-02-11T10:24:51.006Z,3.60
2023-02-11T10:29:59.653Z,3.70
2023-02-11T10:35:10.933Z,3.70
2023-02-11T10:40:40.812Z,3.70
2023-02-11T10:45:50.776Z,3.70
2023-02-11T10:51:14.081Z,3.80
2023-02-11T10:56:28.688Z,3.90
2023-02-11T11:01:42.675Z,4.00
2023-02-11T11:06:46.348Z,4.10
2023-02-11T11:11:54.279Z,4.10
2023-02-11T11:16:58.014Z,4.20
2023-02-11T11:22:01.626Z,4.20
2023-02-11T11:27:06.118Z,4.30
2023-02-11T11:32:21.781Z,4.30
2023-02-11T11:37:35.497Z,4.40
2023-02-11T11:42:40.350Z,4.40
2023-02-11T11:47:45.064Z,4.40
2023-02-11T11:53:01.293Z,4.40
2023-02-11T11:58:05.853Z,4.40
2023-02-11T12:03:19.916Z,4.40
2023-02-11T12:08:26.260Z,4.40
2023-02-11T12:13:50.184Z,4.40
2023-02-11T12:19:27.893Z,4.40
2023-02-11T12:25:02.233Z,4.40
2023-02-11T12:30:38.695Z,4.40
2023-02-11T12:35:45.459Z,4.50
2023-02-11T12:41:10.851Z,4.40
2023-02-11T12:46:37.390Z,4.40
2023-02-11T12:52:08.846Z,4.50
2023-02-11T12:57:29.798Z,4.60
2023-02-11T13:03:12.736Z,4.70
2023-02-11T13:08:25.222Z,4.80
2023-02-11T13:13:35.041Z,4.90
2023-02-11T13:19:05.191Z,5.00
2023-02-11T13:24:27.432Z,5.00
2023-02-11T13:30:30.231Z,5.10
2023-02-11T13:35:43.425Z,5.20
2023-02-11T13:41:07.568Z,5.20
2023-02-11T13:46:16.267Z,5.30
2023-02-11T13:51:38.330Z,5.30
2023-02-11T13:56:46.652Z,5.30
2023-02-11T14:02:09.843Z,5.40
2023-02-11T14:07:54.011Z,5.40
2023-02-11T14:13:29.796Z,5.30
2023-02-11T14:19:00.089Z,5.40
2023-02-11T14:24:09.504Z,5.30
2023-02-11T14:29:32.824Z,5.30
2023-02-11T14:34:55.752Z,5.30
2023-02-11T14:40:19.716Z,5.30
2023-02-11T14:45:29.887Z,5.30
2023-02-11T14:51:14.168Z,5.30
2023-02-11T14:56:22.902Z,5.30
2023-02-11T15:01:36.729Z,5.30
2023-02-11T15:06:45.141Z,5.30
2023-02-11T15:11:52.347Z,5.30
2023-02-11T15:17:00.003Z,5.30
2023-02-11T15:22:23.663Z,5.30
2023-02-11T15:27:28.834Z,5.40
2023-02-11T15:32:33.868Z,5.30
2023-02-11T15:37:41.656Z,5.30
2023-02-11T15:43:06.146Z,5.30
2023-02-11T15:48:17.320Z,5.40
2023-02-11T15:53:29.596Z,5.40
2023-02-11T15:58:41.382Z,5.40
2023-02-11T16:03:50.656Z,5.40
2023-02-11T16:09:06.797Z,5.40
2023-02-11T16:14:40.251Z,5.40
2023-02-11T16:19:50.563Z,5.40
2023-02-11T16:24:59.272Z,5.40
2023-02-11T16:30:04.104Z,5.50
2023-02-11T16:35:12.034Z,5.40
2023-02-11T16:40:16.802Z,5.40
2023-02-11T16:45:21.642Z,5.40
2023-02-11T16:50:27.528Z,5.40
2023-02-11T16:55:32.570Z,5.40
2023-02-11T17:00:37.894Z,5.40
2023-02-11T17:05:54.622Z,5.30
2023-02-11T17:11:04.659Z,5.30
2023-02-11T17:16:23.483Z,5.30
2023-02-11T17:21:29.988Z,5.20
2023-02-11T17:26:35.823Z,5.20
2023-02-11T17:31:41.488Z,5.30
2023-02-11T17:36:47.178Z,5.30
2023-02-11T17:41:53.081Z,5.30
2023-02-11T17:46:57.506Z,5.30
2023-02-11T17:52:01.260Z,5.30
2023-02-11T17:57:05.100Z,5.20
2023-02-11T18:02:11.137Z,5.20
2023-02-11T18:07:15.859Z,5.20
2023-02-11T18:12:26.008Z,5.20
2023-02-11T18:17:30.910Z,5.30
2023-02-11T18:22:40.166Z,5.30
2023-02-11T18:27:44.788Z,5.30
2023-02-11T18:32:56.612Z,5.30
2023-02-11T18:38:00.275Z,5.30
2023-02-11T18:43:05.817Z,5.30
2023-02-11T18:48:11.335Z,5.30
2023-02-11T18:53:16.834Z,5.30
2023-02-11T18:58:23.282Z,5.20
2023-02-11T19:03:28.774Z,5.20
2023-02-11T19:08:35.553Z,5.20
2023-02-11T19:13:40.372Z,5.20
2023-02-11T19:18:45.971Z,5.10
2023-02-11T19:23:50.772Z,5.10
2023-02-11T19:28:57.328Z,5.10
2023-02-11T19:34:02.675Z,5.00
2023-02-11T19:39:10.993Z,5.00
2023-02-11T19:44:15.518Z,5.00
2023-02-11T19:49:27.821Z,4.90
2023-02-11T19:54:32.712Z,4.70
2023-02-11T19:59:38.431Z,4.70
2023-02-11T20:04:43.853Z,4.70
2023-02-11T20:09:50.471Z,4.70
2023-02-11T20:14:57.270Z,4.70
2023-02-11T20:20:02.393Z,4.70
2023-02-11T20:25:07.742Z,4.60
2023-02-11T20:30:15.352Z,4.60
2023-02-11T20:35:21.492Z,4.60
2023-02-11T20:40:26.080Z,4.60
2023-02-11T20:45:36.305Z,4.70
2023-02-11T20:50:42.258Z,4.80
2023-02-11T20:55:50.222Z,4.40
2023-02-11T21:00:55.919Z,4.20
2023-02-11T21:06:02.420Z,4.00
2023-02-11T21:11:10.333Z,3.80
2023-02-11T21:16:18.223Z,3.70
2023-02-11T21:21:24.072Z,3.60
2023-02-11T21:26:29.103Z,3.50
2023-02-11T21:31:36.866Z,3.40
2023-02-11T21:36:40.508Z,3.30
2023-02-11T21:41:57.328Z,3.20
2023-02-11T21:47:03.142Z,3.20
2023-02-11T21:52:11.369Z,3.10
2023-02-11T21:57:17.456Z,3.00
2023-02-11T22:02:21.724Z,2.90
2023-02-11T22:07:27.832Z,2.80
2023-02-11T22:12:31.857Z,2.60
2023-02-11T22:17:35.478Z,2.40
2023-02-11T22:22:39.437Z,2.30
2023-02-11T22:27:42.804Z,2.30
2023-02-11T22:32:47.496Z,2.20
2023-02-11T22:37:50.942Z,2.10
2023-02-11T22:42:54.358Z,2.00
2023-02-11T22:47:58.117Z,1.90
2023-02-11T22:53:01.568Z,2.00
2023-02-11T22:58:05.386Z,2.00
2023-02-11T23:03:09.408Z,2.00
2023-02-11T23:08:13.185Z,1.90
2023-02-11T23:13:16.537Z,1.80
2023-02-11T23:18:19.898Z,1.70
2023-02-11T23:23:23.546Z,1.60
2023-02-11T23:28:27.595Z,1.50
2023-02-11T23:33:31.060Z,1.40
2023-02-11T23:38:37.521Z,1.30
2023-02-11T23:43:41.664Z,1.20
2023-02-11T23:48:48.632Z,1.00
2023-02-11T23:53:53.294Z,0.90
2023-02-11T23:58:59.320Z,0.80
